Time;durP1;ratioP1;P1;durP2;ratioP2;P2;SDS_P1;SDS_P2;PMS_P1;PMS_P2;Temp;Humidity;BMP_temperature;BMP_pressure;BME280_temperature;BME280_humidity;BME280_pressure;Samples;Min_cycle;Max_cycle;Signal;HPM_P1;HPM_P2
2022/04/27 00:01:31;;;;;;;7.03;5.60;;;;;;;5.47;74.48;102274.50;5067760;28;20044;-67
2022/04/27 00:03:56;;;;;;;12.07;6.03;;;;;;;5.48;73.64;102274.44;5068171;28;20024;-76
2022/04/27 00:06:22;;;;;;;10.60;5.82;;;;;;;5.48;74.13;102273.56;5064877;28;20074;-76
2022/04/27 00:08:47;;;;;;;10.02;5.90;;;;;;;5.42;74.88;102271.03;5069325;28;20036;-77
2022/04/27 00:11:13;;;;;;;8.27;5.25;;;;;;;5.42;73.97;102273.75;5051477;28;20025;-68
2022/04/27 00:13:38;;;;;;;9.90;5.90;;;;;;;5.34;74.21;102264.03;5068376;28;20078;-78
2022/04/27 00:16:04;;;;;;;8.13;5.32;;;;;;;5.33;74.71;102273.06;5080675;28;20492;-74
2022/04/27 00:18:29;;;;;;;11.02;6.28;;;;;;;5.28;74.71;102266.91;5064321;28;20662;-67
2022/04/27 00:20:55;;;;;;;7.00;4.85;;;;;;;5.22;74.36;102266.19;5062627;28;20044;-68
2022/04/27 00:23:21;;;;;;;7.85;5.28;;;;;;;5.16;74.75;102259.13;5069671;28;20032;-68
2022/04/27 00:25:46;;;;;;;9.10;5.70;;;;;;;5.14;74.77;102258.31;5070531;28;20025;-77
2022/04/27 00:28:12;;;;;;;10.30;5.43;;;;;;;5.12;74.72;102269.13;5057852;28;20035;-69
2022/04/27 00:30:37;;;;;;;10.10;5.82;;;;;;;5.08;74.97;102264.75;5068773;28;20086;-70
2022/04/27 00:33:02;;;;;;;11.18;5.75;;;;;;;5.00;75.25;102258.69;5065785;28;20033;-70
2022/04/27 00:35:28;;;;;;;10.65;5.97;;;;;;;5.07;75.48;102270.19;5065813;28;20566;-78
2022/04/27 00:37:53;;;;;;;11.10;5.93;;;;;;;5.02;74.63;102270.31;5068887;28;20065;-68
2022/04/27 00:40:18;;;;;;;10.50;6.40;;;;;;;5.02;75.05;102280.22;5070176;28;20028;-78
2022/04/27 00:42:44;;;;;;;10.77;5.50;;;;;;;4.99;75.17;102273.09;5074934;28;20021;-78
2022/04/27 00:45:09;;;;;;;10.35;6.60;;;;;;;4.98;74.86;102270.41;5052475;28;20037;-72
2022/04/27 00:47:35;;;;;;;11.98;6.35;;;;;;;4.97;74.98;102282.13;5062934;28;20075;-69
2022/04/27 00:50:02;;;;;;;6.90;5.50;;;;;;;4.89;75.72;102270.66;5053936;28;20032;-72
2022/04/27 00:52:28;;;;;;;9.18;6.15;;;;;;;4.88;75.99;102280.56;5060832;28;20036;-68
2022/04/27 00:54:55;;;;;;;8.57;6.13;;;;;;;4.83;76.06;102277.97;5057701;28;20539;-69
2022/04/27 00:57:24;;;;;;;10.70;5.88;;;;;;;4.81;76.03;102281.66;5056031;28;20024;-76
2022/04/27 00:59:51;;;;;;;11.90;6.32;;;;;;;4.80;76.48;102287.94;5052005;28;20123;-68
2022/04/27 01:02:18;;;;;;;12.05;6.18;;;;;;;4.72;77.06;102279.19;5053777;28;20029;-75
2022/04/27 01:04:44;;;;;;;17.55;6.85;;;;;;;4.68;76.66;102288.28;5069737;28;20036;-68
2022/04/27 01:07:11;;;;;;;11.98;6.90;;;;;;;4.65;76.86;102285.66;5067753;28;20408;-71
2022/04/27 01:09:37;;;;;;;8.90;6.65;;;;;;;4.57;77.25;102286.75;5068670;28;20090;-77
2022/04/27 01:12:04;;;;;;;14.35;7.03;;;;;;;4.52;78.22;102290.44;5051786;28;20047;-69
2022/04/27 01:14:41;;;;;;;11.00;6.43;;;;;;;4.50;77.31;102303.09;5050912;28;20044;-77
2022/04/27 01:17:07;;;;;;;12.43;6.40;;;;;;;4.48;77.50;102297.75;5055823;28;20082;-76
2022/04/27 01:19:32;;;;;;;10.63;6.55;;;;;;;4.49;77.45;102296.81;5068424;28;20484;-69
2022/04/27 01:21:58;;;;;;;10.70;6.97;;;;;;;4.48;78.04;102299.56;5059353;28;20021;-76
2022/04/27 01:24:24;;;;;;;10.95;6.72;;;;;;;4.49;77.23;102299.50;5068143;28;20024;-76
2022/04/27 01:26:51;;;;;;;12.23;7.45;;;;;;;4.49;77.06;102304.00;5051672;28;20024;-76
2022/04/27 01:29:18;;;;;;;14.20;7.00;;;;;;;4.45;77.64;102302.31;5057929;28;20060;-75
2022/04/27 01:31:44;;;;;;;11.48;7.28;;;;;;;4.43;77.92;102307.75;5063770;28;20032;-77
2022/04/27 01:34:11;;;;;;;11.18;6.43;;;;;;;4.40;77.85;102306.91;5068674;28;20043;-68
2022/04/27 01:36:36;;;;;;;11.68;6.63;;;;;;;4.39;76.77;102300.66;5068716;28;20036;-67
2022/04/27 01:39:03;;;;;;;13.13;8.00;;;;;;;4.40;76.77;102312.31;5069028;28;20120;-69
2022/04/27 01:41:28;;;;;;;11.82;6.60;;;;;;;4.37;77.69;102304.28;5063707;28;20029;-75
2022/04/27 01:43:53;;;;;;;10.40;6.70;;;;;;;4.37;77.02;102310.56;5060536;28;20037;-68
2022/04/27 01:46:19;;;;;;;10.98;6.43;;;;;;;4.37;76.80;102304.28;5065899;28;20124;-67
2022/04/27 01:48:44;;;;;;;13.02;6.60;;;;;;;4.33;76.69;102303.47;5065075;28;20127;-78
2022/04/27 01:51:11;;;;;;;11.65;6.97;;;;;;;4.30;77.76;102299.06;5067991;28;20029;-69
2022/04/27 01:56:20;;;;;;;10.13;6.45;;;;;;;4.26;76.68;102304.53;5080382;28;20516;-69
2022/04/27 01:58:49;;;;;;;12.43;6.53;;;;;;;4.21;76.74;102309.16;5055804;28;20168;-69
2022/04/27 02:01:16;;;;;;;12.02;6.15;;;;;;;4.18;77.67;102309.22;5061031;28;20048;-77
2022/04/27 02:03:42;;;;;;;12.57;7.07;;;;;;;4.14;77.66;102313.78;5066717;28;20531;-73
2022/04/27 02:06:13;;;;;;;10.50;6.55;;;;;;;4.11;77.34;102313.84;5048794;28;20033;-68
2022/04/27 02:08:39;;;;;;;13.63;6.38;;;;;;;4.09;77.48;102311.19;5060826;28;20032;-75
2022/04/27 02:11:04;;;;;;;11.45;6.95;;;;;;;4.07;78.11;102318.41;5061103;28;20396;-68
2022/04/27 02:13:33;;;;;;;14.15;7.35;;;;;;;4.05;78.31;102314.84;5065209;28;20024;-76
2022/04/27 02:16:01;;;;;;;13.15;7.03;;;;;;;4.01;77.86;102310.47;5067351;28;20549;-68
2022/04/27 02:18:39;;;;;;;15.45;7.85;;;;;;;4.00;78.54;102313.19;5070170;28;20442;-69
2022/04/27 02:21:05;;;;;;;12.95;6.45;;;;;;;4.01;78.33;102317.66;5073730;28;20033;-76
2022/04/27 02:23:31;;;;;;;12.25;7.80;;;;;;;3.99;79.53;102320.38;5071414;28;20028;-76
2022/04/27 02:26:00;;;;;;;10.82;6.95;;;;;;;3.98;78.46;102321.31;5053614;28;20028;-69
2022/04/27 02:28:26;;;;;;;9.82;7.20;;;;;;;4.05;78.65;102331.00;5061657;28;20040;-76
2022/04/27 02:30:51;;;;;;;11.13;7.15;;;;;;;4.09;78.82;102327.34;5050385;28;20039;-68
2022/04/27 02:33:17;;;;;;;13.07;7.05;;;;;;;4.13;79.91;102321.91;5053472;28;20032;-68
2022/04/27 02:35:43;;;;;;;10.90;7.18;;;;;;;4.11;79.46;102323.75;5058758;28;20099;-77
2022/04/27 02:38:08;;;;;;;10.40;6.75;;;;;;;4.12;79.18;102329.09;5068803;28;20052;-68
2022/04/27 02:40:35;;;;;;;14.88;7.45;;;;;;;4.09;78.99;102332.72;5071168;28;20399;-77
2022/04/27 02:43:00;;;;;;;12.68;6.85;;;;;;;4.07;79.81;102331.00;5050058;28;20186;-69
2022/04/27 02:45:25;;;;;;;12.52;7.00;;;;;;;4.07;79.01;102336.38;5082681;28;20479;-77
2022/04/27 02:47:51;;;;;;;15.60;7.40;;;;;;;4.06;79.00;102338.19;5069966;28;20036;-75
2022/04/27 02:53:01;;;;;;;12.10;7.57;;;;;;;4.03;78.60;102343.63;5059577;28;20399;-68
2022/04/27 02:55:34;;;;;;;10.63;7.57;;;;;;;4.03;78.27;102343.63;5045677;28;20028;-77
2022/04/27 02:57:59;;;;;;;10.40;7.30;;;;;;;4.01;78.58;102345.50;5064959;28;20035;-68
2022/04/27 03:00:25;;;;;;;12.57;7.07;;;;;;;3.96;78.58;102346.47;5066158;28;20032;-76
2022/04/27 03:02:52;;;;;;;13.75;6.90;;;;;;;3.94;78.48;102348.31;5069382;28;20043;-69
2022/04/27 03:05:21;;;;;;;10.27;7.45;;;;;;;3.87;78.35;102333.19;5054410;28;20063;-68
2022/04/27 03:07:46;;;;;;;9.82;6.47;;;;;;;3.89;77.88;102347.53;5070761;28;20032;-69
2022/04/27 03:10:12;;;;;;;13.80;6.95;;;;;;;3.80;78.00;102335.16;5070691;28;20032;-76
2022/04/27 03:12:37;;;;;;;12.13;7.00;;;;;;;3.80;78.69;102344.09;5042277;28;20471;-76
2022/04/27 03:15:05;;;;;;;16.90;8.25;;;;;;;3.73;79.73;102350.56;5068999;28;20390;-68
2022/04/27 03:17:31;;;;;;;13.02;7.10;;;;;;;3.66;79.80;102343.50;5057532;28;20029;-75
2022/04/27 03:19:58;;;;;;;12.50;7.65;;;;;;;3.60;79.58;102330.19;5066581;28;20498;-77
2022/04/27 03:22:23;;;;;;;14.77;7.93;;;;;;;3.60;79.28;102340.94;5070866;28;20013;-68
2022/04/27 03:24:49;;;;;;;10.43;6.82;;;;;;;3.57;78.25;102338.28;5071409;28;20033;-76
2022/04/27 03:27:18;;;;;;;10.85;6.03;;;;;;;3.55;78.40;102342.84;5081599;28;20017;-69
2022/04/27 03:29:44;;;;;;;10.32;6.22;;;;;;;3.51;78.83;102342.00;5052183;28;20399;-77
2022/04/27 03:32:12;;;;;;;10.63;7.28;;;;;;;3.48;79.48;102351.91;5058065;28;20031;-77
2022/04/27 03:34:41;;;;;;;10.07;6.57;;;;;;;3.48;78.98;102354.63;5078588;28;20036;-70
2022/04/27 03:37:08;;;;;;;13.18;7.03;;;;;;;3.44;79.39;102344.81;5060392;28;20373;-77
2022/04/27 03:39:34;;;;;;;14.50;7.38;;;;;;;3.41;79.09;102348.47;5065329;28;20040;-69
2022/04/27 03:42:00;;;;;;;14.52;7.72;;;;;;;3.37;79.33;102345.88;5070000;28;20455;-68
2022/04/27 03:44:26;;;;;;;14.10;8.35;;;;;;;3.40;79.19;102352.06;5058986;28;20033;-69
2022/04/27 03:46:53;;;;;;;11.98;7.72;;;;;;;3.37;79.29;102352.13;5065745;28;20559;-69
2022/04/27 03:49:18;;;;;;;11.95;8.23;;;;;;;3.31;79.25;102346.84;5056227;28;20110;-69
2022/04/27 03:51:44;;;;;;;17.73;7.97;;;;;;;3.27;79.40;102355.91;5070005;28;20400;-68
2022/04/27 03:54:09;;;;;;;13.45;7.70;;;;;;;3.21;79.72;102351.50;5069930;28;20029;-74
2022/04/27 03:56:35;;;;;;;16.58;8.18;;;;;;;3.16;79.18;102360.56;5046587;28;20040;-76
2022/04/27 03:59:01;;;;;;;14.55;8.52;;;;;;;3.16;78.96;102363.25;5051847;28;20040;-75
2022/04/27 04:01:26;;;;;;;11.70;6.97;;;;;;;3.14;78.59;102367.78;5068546;28;20036;-69
2022/04/27 04:03:52;;;;;;;10.10;6.15;;;;;;;3.09;78.81;102364.28;5067169;28;20028;-69
2022/04/27 04:06:19;;;;;;;10.73;6.65;;;;;;;3.05;78.85;102368.81;5069539;28;20031;-74
2022/04/27 04:08:46;;;;;;;11.27;7.35;;;;;;;3.00;79.33;102376.97;5049429;28;20082;-69
2022/04/27 04:11:12;;;;;;;10.32;7.20;;;;;;;3.00;79.22;102378.78;5067572;28;20127;-69
2022/04/27 04:13:58;;;;;;;12.88;6.97;;;;;;;2.99;78.90;102385.94;5056282;28;20049;-78
2022/04/27 04:16:43;;;;;;;11.43;7.13;;;;;;;2.97;78.85;102381.50;5058978;28;20045;-74
2022/04/27 04:19:21;;;;;;;10.50;6.93;;;;;;;2.98;78.86;102378.78;5083486;28;20036;-75
2022/04/27 04:22:17;;;;;;;10.60;7.13;;;;;;;2.95;78.55;102391.41;5069466;28;20056;-68
2022/04/27 04:30:19;;;;;;;10.50;6.43;;;;;;;2.85;78.85;102379.91;5059204;28;20039;-75
2022/04/27 04:32:53;;;;;;;11.18;7.25;;;;;;;2.80;78.91;102379.09;5052181;28;20025;-69
2022/04/27 04:35:35;;;;;;;13.43;6.57;;;;;;;2.84;78.77;102396.94;5054583;28;20041;-68
2022/04/27 04:38:01;;;;;;;12.88;7.07;;;;;;;2.84;79.13;102402.28;5066414;28;20107;-69
2022/04/27 04:40:26;;;;;;;11.00;7.10;;;;;;;2.81;78.89;102394.31;5066858;28;20128;-68
2022/04/27 04:42:53;;;;;;;12.90;8.15;;;;;;;2.85;78.82;102409.47;5053972;28;20086;-69
2022/04/27 04:45:19;;;;;;;11.57;7.43;;;;;;;2.90;78.89;102412.97;5062246;28;20029;-75
2022/04/27 04:48:04;;;;;;;14.02;7.93;;;;;;;2.92;79.22;102412.94;5065872;28;20093;-74
2022/04/27 04:50:59;;;;;;;13.80;7.53;;;;;;;2.96;79.00;102412.88;5055817;28;20887;-69
2022/04/27 04:53:43;;;;;;;13.57;7.90;;;;;;;2.99;79.05;102415.53;5068701;28;20029;-74
2022/04/27 04:56:08;;;;;;;11.75;7.93;;;;;;;3.01;78.66;102419.06;5069976;28;20047;-77
2022/04/27 04:58:57;;;;;;;12.00;7.28;;;;;;;3.02;79.13;102423.53;5058597;28;20039;-75
2022/04/27 05:01:41;;;;;;;11.90;7.65;;;;;;;3.05;79.30;102427.97;5051741;28;20028;-69
2022/04/27 05:04:26;;;;;;;13.80;7.93;;;;;;;3.05;79.58;102422.59;5066804;28;20112;-70
2022/04/27 05:06:57;;;;;;;10.85;7.60;;;;;;;3.08;79.66;102430.63;5070044;28;20038;-70
2022/04/27 05:09:29;;;;;;;13.27;7.85;;;;;;;3.10;79.94;102427.91;5069664;28;20081;-74
2022/04/27 05:12:06;;;;;;;17.10;9.52;;;;;;;3.09;80.13;102426.13;5052974;28;20040;-74
2022/04/27 05:14:47;;;;;;;14.25;8.70;;;;;;;3.13;79.98;102434.13;5063439;28;20044;-71
2022/04/27 05:17:36;;;;;;;13.27;7.45;;;;;;;3.17;79.57;102432.25;5063010;28;20031;-76
2022/04/27 05:20:11;;;;;;;14.63;8.50;;;;;;;3.23;80.02;102440.25;5066236;28;20395;-75
2022/04/27 05:22:49;;;;;;;17.25;7.95;;;;;;;3.26;80.30;102441.09;5068583;28;20036;-68
2022/04/27 05:25:30;;;;;;;13.68;8.25;;;;;;;3.32;79.61;102442.78;5056511;28;20040;-68
2022/04/27 05:28:06;;;;;;;17.08;8.65;;;;;;;3.41;79.72;102444.44;5061441;28;20123;-68
2022/04/27 05:33:58;;;;;;;13.73;8.13;;;;;;;3.57;79.26;102454.00;5057990;28;20055;-69
2022/04/27 05:36:36;;;;;;;18.13;8.00;;;;;;;3.62;79.60;102452.13;5053660;28;20118;-75
2022/04/27 05:39:14;;;;;;;14.25;8.43;;;;;;;3.67;79.46;102455.59;5067280;28;20131;-68
2022/04/27 05:41:54;;;;;;;17.60;8.50;;;;;;;3.73;80.04;102465.38;5064127;28;20545;-74
2022/04/27 05:44:38;;;;;;;15.77;8.70;;;;;;;3.81;79.60;102460.75;5059251;28;20051;-74
2022/04/27 05:47:20;;;;;;;12.35;8.10;;;;;;;3.93;79.25;102456.94;5052667;28;20123;-75
2022/04/27 05:50:04;;;;;;;15.05;8.50;;;;;;;4.03;80.22;102472.88;5070601;28;20029;-68
2022/04/27 05:52:52;;;;;;;14.63;8.75;;;;;;;4.11;79.54;102467.38;5056778;28;20063;-76
2022/04/27 05:55:43;;;;;;;17.85;9.40;;;;;;;4.19;83.42;102478.84;5069614;28;20055;-76
2022/04/27 05:58:28;;;;;;;18.90;9.25;;;;;;;4.27;82.55;102467.94;5064063;28;20138;-76
2022/04/27 06:01:08;;;;;;;20.50;9.88;;;;;;;4.37;84.07;102469.53;5070362;28;20032;-76
2022/04/27 06:03:44;;;;;;;16.23;9.13;;;;;;;4.47;83.00;102470.22;5068504;28;20450;-74
2022/04/27 06:06:10;;;;;;;19.33;9.70;;;;;;;4.52;84.49;102473.69;5071209;28;20101;-72
2022/04/27 06:08:36;;;;;;;16.92;10.10;;;;;;;4.60;83.71;102478.00;5072131;28;20046;-68
2022/04/27 06:11:04;;;;;;;15.95;10.07;;;;;;;4.67;83.30;102478.78;5070237;28;20499;-70
2022/04/27 06:13:41;;;;;;;16.08;9.82;;;;;;;4.76;82.99;102480.41;5058899;28;20492;-73
2022/04/27 06:16:24;;;;;;;17.48;10.68;;;;;;;4.86;84.63;102487.34;5059899;28;20373;-69
2022/04/27 06:18:59;;;;;;;18.02;10.25;;;;;;;4.93;84.23;102480.88;5049693;28;20028;-73
2022/04/27 06:21:30;;;;;;;19.15;9.15;;;;;;;5.05;84.16;102485.13;5055115;28;20039;-68
2022/04/27 06:23:58;;;;;;;18.52;9.93;;;;;;;5.14;83.73;102484.91;5068663;28;20029;-75
2022/04/27 06:26:23;;;;;;;18.67;9.45;;;;;;;5.23;83.25;102494.59;5068908;28;20012;-76
2022/04/27 06:28:51;;;;;;;16.10;9.57;;;;;;;5.30;82.93;102489.00;5068592;28;20032;-73
2022/04/27 06:31:17;;;;;;;18.50;10.15;;;;;;;5.44;83.50;102506.69;5066779;28;20040;-68
2022/04/27 06:33:43;;;;;;;23.00;10.80;;;;;;;5.54;82.75;102505.53;5057603;28;20400;-76
2022/04/27 06:36:08;;;;;;;15.95;9.88;;;;;;;5.66;83.08;102504.34;5066338;28;20036;-68
2022/04/27 06:38:34;;;;;;;22.13;9.82;;;;;;;5.74;83.05;102503.22;5054300;28;20561;-73
2022/04/27 06:41:06;;;;;;;17.95;9.65;;;;;;;5.84;81.67;102504.75;5071637;28;20480;-75
2022/04/27 06:43:51;;;;;;;17.30;8.63;;;;;;;5.95;80.45;102503.63;5062917;28;20047;-76
2022/04/27 06:46:35;;;;;;;16.25;9.13;;;;;;;6.13;80.50;102511.22;5069679;28;20123;-74
2022/04/27 06:49:23;;;;;;;18.15;8.80;;;;;;;6.56;79.96;102502.78;5060754;28;20043;-76
2022/04/27 06:52:14;;;;;;;15.80;8.60;;;;;;;7.49;76.24;102515.25;5064210;28;20183;-68
2022/04/27 06:54:58;;;;;;;13.48;8.70;;;;;;;7.77;73.97;102515.22;5071350;28;20564;-76
2022/04/27 06:57:49;;;;;;;18.02;9.05;;;;;;;7.63;74.21;102517.50;5063554;28;20591;-75
2022/04/27 07:00:15;;;;;;;15.82;8.98;;;;;;;7.48;75.42;102520.72;5051582;28;20104;-69
2022/04/27 07:02:41;;;;;;;15.40;8.93;;;;;;;7.39;76.59;102516.50;5048608;28;20433;-76
2022/04/27 07:05:09;;;;;;;18.85;10.02;;;;;;;7.36;75.82;102520.16;5072306;28;20441;-75
2022/04/27 07:07:35;;;;;;;19.73;9.98;;;;;;;7.35;75.38;102522.94;5071019;28;20040;-68
2022/04/27 07:10:00;;;;;;;16.27;8.75;;;;;;;7.33;74.65;102520.28;5070220;28;20423;-73
2022/04/27 07:12:26;;;;;;;18.65;9.30;;;;;;;7.29;75.37;102518.59;5071228;28;20469;-73
2022/04/27 07:14:51;;;;;;;15.35;7.82;;;;;;;7.37;75.94;102527.38;5051415;28;20056;-73
2022/04/27 07:17:17;;;;;;;15.73;9.02;;;;;;;7.39;76.26;102522.78;5066791;28;20028;-68
2022/04/27 07:19:42;;;;;;;13.48;8.50;;;;;;;7.46;76.26;102528.91;5068744;28;20090;-69
2022/04/27 07:22:08;;;;;;;15.55;9.43;;;;;;;7.52;76.30;102531.41;5071116;28;20023;-69
2022/04/27 07:24:33;;;;;;;18.25;8.85;;;;;;;7.87;75.28;102534.75;5061348;28;20028;-76
2022/04/27 07:26:59;;;;;;;11.35;8.25;;;;;;;8.01;72.36;102531.56;5065012;28;20085;-76
2022/04/27 07:29:24;;;;;;;13.10;8.20;;;;;;;8.06;73.10;102530.47;5059649;28;20048;-73
2022/04/27 07:31:50;;;;;;;11.93;8.00;;;;;;;8.08;72.84;102533.13;5063380;28;20033;-76
2022/04/27 07:34:16;;;;;;;12.00;7.65;;;;;;;8.09;72.73;102534.91;5068428;28;20426;-73
2022/04/27 07:36:41;;;;;;;12.23;7.65;;;;;;;8.14;70.85;102549.19;5069578;28;20041;-69
2022/04/27 07:39:07;;;;;;;11.73;8.07;;;;;;;8.17;72.23;102547.25;5068982;28;20479;-75
2022/04/27 07:41:33;;;;;;;14.05;7.88;;;;;;;8.24;71.79;102549.75;5067022;28;20040;-69
2022/04/27 07:43:58;;;;;;;11.73;7.63;;;;;;;8.29;70.05;102542.31;5059974;28;20024;-75
2022/04/27 07:46:24;;;;;;;12.18;7.78;;;;;;;8.62;73.23;102538.41;5061562;28;20037;-68
2022/04/27 07:48:51;;;;;;;15.35;7.63;;;;;;;9.19;67.66;102541.69;5062098;28;20060;-76
2022/04/27 07:51:17;;;;;;;12.52;8.52;;;;;;;9.63;67.55;102547.16;5069144;28;20086;-74
2022/04/27 07:53:43;;;;;;;13.95;7.97;;;;;;;10.21;66.65;102545.59;5067785;28;20483;-68
2022/04/27 07:56:08;;;;;;;9.52;7.15;;;;;;;10.61;60.98;102549.28;5064332;28;20073;-68
2022/04/27 07:58:34;;;;;;;7.43;5.28;;;;;;;10.82;60.86;102547.41;5063484;28;20025;-68
2022/04/27 08:01:00;;;;;;;9.90;4.65;;;;;;;11.11;56.02;102547.88;5065648;28;20091;-68
2022/04/27 08:03:26;;;;;;;7.50;4.50;;;;;;;11.34;57.08;102549.53;5065044;28;20056;-67
2022/04/27 08:05:51;;;;;;;9.27;5.82;;;;;;;11.85;57.55;102550.66;5069864;28;20055;-75
2022/04/27 08:08:16;;;;;;;5.68;3.95;;;;;;;12.35;52.20;102553.47;5069668;28;20013;-70
2022/04/27 08:10:42;;;;;;;7.10;4.28;;;;;;;12.12;51.84;102548.34;5069801;28;20547;-69
2022/04/27 08:13:07;;;;;;;8.95;4.00;;;;;;;12.25;50.81;102554.94;5052040;28;20163;-75
2022/04/27 08:15:33;;;;;;;8.10;4.55;;;;;;;12.73;54.87;102550.59;5069365;28;113060;-71
2022/04/27 08:18:01;;;;;;;7.88;3.45;;;;;;;13.13;50.27;102559.31;5056738;28;20040;-75
2022/04/27 08:23:16;;;;;;;7.10;4.28;;;;;;;14.04;52.39;102564.09;5070393;28;20036;-69
2022/04/27 08:25:44;;;;;;;8.77;4.40;;;;;;;14.62;51.11;102560.56;5063678;28;20480;-75
2022/04/27 08:28:09;;;;;;;9.82;4.13;;;;;;;14.97;49.26;102555.63;5057554;28;22053;-71
2022/04/27 08:30:37;;;;;;;5.97;3.90;;;;;;;15.08;46.95;102559.53;5069546;28;20028;-69
2022/04/27 08:33:03;;;;;;;6.40;4.18;;;;;;;15.07;43.65;102564.16;5056210;28;20167;-68
2022/04/27 08:35:31;;;;;;;8.93;3.65;;;;;;;14.83;43.00;102566.59;5066797;28;20063;-68
2022/04/27 08:37:56;;;;;;;7.47;4.25;;;;;;;14.44;43.20;102573.50;5067579;28;20119;-68
2022/04/27 08:40:22;;;;;;;7.00;3.88;;;;;;;14.69;46.92;102567.44;5084215;28;20185;-72
2022/04/27 08:42:49;;;;;;;10.38;4.03;;;;;;;15.30;46.24;102565.41;5062170;28;20042;-72
2022/04/27 08:45:17;;;;;;;7.72;3.92;;;;;;;15.59;45.12;102565.34;5066550;28;20092;-68
2022/04/27 08:47:46;;;;;;;6.70;3.53;;;;;;;15.93;47.92;102570.38;5055354;28;20048;-69
2022/04/27 08:50:16;;;;;;;7.68;3.95;;;;;;;16.28;45.08;102570.72;5065383;28;20204;-68
2022/04/27 08:52:43;;;;;;;6.93;3.60;;;;;;;16.25;41.93;102570.91;5068518;28;20029;-68
2022/04/27 08:55:09;;;;;;;6.88;4.70;;;;;;;15.87;42.51;102573.53;5070162;28;20047;-68
2022/04/27 08:57:35;;;;;;;5.75;4.38;;;;;;;15.48;44.20;102574.28;5064304;28;20054;-67
2022/04/27 09:00:01;;;;;;;5.00;4.00;;;;;;;15.56;44.04;102571.91;5061710;28;20036;-67
2022/04/27 09:02:28;;;;;;;6.43;4.25;;;;;;;15.72;46.37;102574.56;5056558;28;20044;-72
2022/04/27 09:05:09;;;;;;;7.97;4.97;;;;;;;15.71;46.25;102584.63;5069839;28;20032;-67
2022/04/27 09:07:56;;;;;;;6.53;4.73;;;;;;;15.70;46.84;102580.16;5060400;28;20040;-72
2022/04/27 09:10:24;;;;;;;6.68;4.80;;;;;;;15.21;40.84;102579.72;5057047;28;20036;-68
2022/04/27 09:12:50;;;;;;;11.00;4.55;;;;;;;15.02;44.71;102571.78;5066712;28;20533;-72
2022/04/27 09:15:24;;;;;;;7.57;4.22;;;;;;;15.57;46.71;102577.31;5053928;28;20164;-73
2022/04/27 09:20:48;;;;;;;6.82;4.40;;;;;;;16.61;43.37;102573.97;5057579;28;20028;-67
2022/04/27 09:23:21;;;;;;;9.35;4.85;;;;;;;17.03;44.02;102573.69;5069573;28;20039;-68
2022/04/27 09:25:47;;;;;;;8.00;5.00;;;;;;;17.07;40.23;102574.34;5063083;28;20025;-67
2022/04/27 09:28:13;;;;;;;6.18;5.15;;;;;;;17.10;41.44;102574.13;5052193;28;20047;-68
2022/04/27 09:30:38;;;;;;;9.20;5.28;;;;;;;17.13;39.46;102573.91;5069226;28;20036;-68
2022/04/27 09:33:03;;;;;;;27.27;9.23;;;;;;;17.19;40.03;102573.44;5052458;28;20086;-72
2022/04/27 09:35:34;;;;;;;10.43;5.07;;;;;;;17.41;42.13;102572.75;5065750;28;20059;-72
2022/04/27 09:38:19;;;;;;;6.63;4.75;;;;;;;17.58;43.54;102564.13;5068937;28;20085;-67
2022/04/27 09:40:53;;;;;;;8.43;4.97;;;;;;;17.58;40.55;102564.13;5069513;28;20037;-74
2022/04/27 09:43:47;;;;;;;7.97;5.88;;;;;;;17.10;40.44;102576.88;5061943;28;20491;-66
2022/04/27 09:46:22;;;;;;;11.75;6.00;;;;;;;17.04;40.06;102578.19;5051981;28;20534;-67
2022/04/27 09:49:11;;;;;;;5.80;5.20;;;;;;;16.66;38.99;102577.28;5052149;28;20037;-73
2022/04/27 09:51:48;;;;;;;9.95;5.65;;;;;;;15.97;40.02;102579.28;5069994;28;20041;-67
2022/04/27 09:54:22;;;;;;;8.27;5.30;;;;;;;16.07;40.83;102578.56;5067315;28;20029;-71
2022/04/27 09:56:56;;;;;;;11.05;5.57;;;;;;;16.08;39.20;102579.44;5067831;28;20040;-67
2022/04/27 09:59:26;;;;;;;10.15;5.65;;;;;;;16.01;41.32;102578.09;5039019;28;20129;-72
2022/04/27 10:01:55;;;;;;;11.05;5.68;;;;;;;16.66;43.06;102580.91;5066824;28;20421;-75
2022/04/27 10:04:24;;;;;;;11.45;6.20;;;;;;;17.15;41.31;102577.41;5065667;28;20470;-75
2022/04/27 10:06:50;;;;;;;7.85;5.80;;;;;;;17.39;40.35;102571.09;5055062;28;20039;-75
2022/04/27 10:09:15;;;;;;;7.80;5.43;;;;;;;17.43;40.10;102578.13;5069142;28;20032;-73
2022/04/27 10:11:42;;;;;;;10.20;5.90;;;;;;;17.72;40.72;102576.88;5067201;28;20044;-72
2022/04/27 10:14:07;;;;;;;10.02;5.90;;;;;;;17.67;39.06;102576.31;5055685;28;20447;-66
2022/04/27 10:16:34;;;;;;;7.68;5.10;;;;;;;17.65;38.41;102569.19;5061971;28;20124;-67
2022/04/27 10:19:00;;;;;;;9.98;5.35;;;;;;;17.98;39.10;102569.41;5059133;28;20114;-67
2022/04/27 10:21:43;;;;;;;8.75;5.68;;;;;;;17.88;39.45;102568.34;5059060;28;20025;-75
2022/04/27 10:24:09;;;;;;;7.63;5.68;;;;;;;18.09;40.79;102571.31;5064897;28;20036;-67
2022/04/27 10:26:35;;;;;;;6.72;5.25;;;;;;;18.36;40.36;102568.31;5066475;28;20060;-73
2022/04/27 10:29:05;;;;;;;8.35;5.68;;;;;;;18.71;37.52;102568.34;5053135;28;20072;-73
2022/04/27 10:31:42;;;;;;;7.80;5.50;;;;;;;18.63;39.01;102559.75;5066235;28;20131;-74
2022/04/27 10:34:26;;;;;;;6.25;5.20;;;;;;;18.86;39.62;102557.97;5064899;28;20108;-68
2022/04/27 10:36:58;;;;;;;7.57;5.57;;;;;;;18.83;35.28;102560.94;5071187;28;20784;-66
2022/04/27 10:39:28;;;;;;;7.15;5.45;;;;;;;19.06;35.92;102548.94;5072277;28;20040;-72
2022/04/27 10:42:03;;;;;;;11.75;5.70;;;;;;;18.88;35.74;102553.19;5070113;28;20044;-67
2022/04/27 10:44:50;;;;;;;11.38;5.93;;;;;;;18.79;35.52;102563.09;5056137;28;20040;-72
2022/04/27 10:47:20;;;;;;;7.13;5.25;;;;;;;18.08;37.91;102551.16;5067912;28;20044;-72
2022/04/27 10:49:50;;;;;;;6.90;5.07;;;;;;;18.00;37.37;102555.50;5069768;28;20029;-73
2022/04/27 10:52:16;;;;;;;10.63;5.78;;;;;;;18.01;39.68;102560.03;5067499;28;20166;-66
2022/04/27 10:54:42;;;;;;;7.55;5.30;;;;;;;18.27;37.63;102553.38;5067866;28;20120;-73
2022/04/27 10:57:28;;;;;;;7.90;6.13;;;;;;;18.58;40.53;102559.25;5071914;28;20039;-73
2022/04/27 11:00:01;;;;;;;7.57;6.20;;;;;;;18.72;38.56;102553.53;5054907;28;20059;-66
2022/04/27 11:02:37;;;;;;;9.27;5.72;;;;;;;19.15;38.37;102552.84;5061657;28;20024;-66
2022/04/27 11:05:23;;;;;;;11.93;6.75;;;;;;;19.42;39.19;102554.34;5067000;28;20043;-68
2022/04/27 11:07:58;;;;;;;8.15;6.43;;;;;;;19.51;36.91;102554.44;5071324;28;20453;-69
2022/04/27 11:10:25;;;;;;;8.73;6.13;;;;;;;19.66;34.79;102552.31;5071211;28;20256;-73
2022/04/27 11:12:52;;;;;;;8.15;5.85;;;;;;;19.84;36.52;102549.91;5066379;28;20598;-68
2022/04/27 11:15:21;;;;;;;8.95;5.63;;;;;;;20.46;37.03;102545.47;5064313;28;20044;-67
2022/04/27 11:18:03;;;;;;;12.07;5.70;;;;;;;20.82;35.26;102542.28;5065654;28;20028;-68
2022/04/27 11:20:33;;;;;;;5.97;5.30;;;;;;;21.17;35.35;102537.34;5057804;28;20037;-68
2022/04/27 11:23:03;;;;;;;11.85;6.55;;;;;;;21.21;31.68;102539.69;5071492;28;20039;-68
2022/04/27 11:25:33;;;;;;;7.90;6.03;;;;;;;21.17;33.79;102541.00;5071079;28;20476;-66
2022/04/27 11:28:00;;;;;;;8.68;6.03;;;;;;;21.21;33.70;102536.91;5059399;28;21208;-71
2022/04/27 11:30:28;;;;;;;8.27;5.97;;;;;;;20.96;33.08;102543.81;5065877;28;20039;-69
2022/04/27 11:32:54;;;;;;;10.95;5.80;;;;;;;20.39;31.49;102546.03;5060734;28;20040;-67
2022/04/27 11:35:23;;;;;;;8.25;6.13;;;;;;;20.12;33.40;102551.19;5070595;28;20404;-66
2022/04/27 11:37:53;;;;;;;9.48;6.07;;;;;;;20.10;35.85;102537.50;5070828;28;20039;-72
2022/04/27 11:40:25;;;;;;;7.25;6.20;;;;;;;19.68;34.89;102541.13;5064371;28;20076;-73
2022/04/27 11:42:50;;;;;;;8.68;7.45;;;;;;;19.09;34.57;102545.06;5067035;28;20085;-69
2022/04/27 11:45:23;;;;;;;11.80;6.82;;;;;;;18.81;35.88;102550.06;5067960;28;20032;-74
2022/04/27 11:47:56;;;;;;;9.23;6.28;;;;;;;19.04;37.21;102550.97;5062447;28;20357;-74
2022/04/27 11:50:22;;;;;;;9.07;6.55;;;;;;;19.44;34.83;102539.38;5068667;28;20436;-66
2022/04/27 11:53:13;;;;;;;8.95;6.70;;;;;;;19.87;36.37;102546.88;5069783;28;20307;-72
2022/04/27 11:55:39;;;;;;;8.55;5.93;;;;;;;20.29;35.97;102549.75;5066126;28;20032;-71
2022/04/27 11:58:07;;;;;;;10.05;5.97;;;;;;;20.59;34.65;102549.84;5054031;28;20029;-68